Time;durP1;ratioP1;P1;durP2;ratioP2;P2;SDS_P1;SDS_P2;PMS_P1;PMS_P2;Temp;Humidity;BMP_temperature;BMP_pressure;BME280_temperature;BME280_humidity;BME280_pressure;Samples;Min_cycle;Max_cycle;Signal;HPM_P1;HPM_P2
2022/12/20 00:01:29;;;;;;;39.47;27.90;;;2.70;99.90;;;;;;6254428;28;20061;-82
2022/12/20 00:04:30;;;;;;;43.40;27.38;;;2.70;99.90;;;;;;6253125;28;20503;-81
2022/12/20 00:07:33;;;;;;;44.50;25.85;;;2.70;99.90;;;;;;6216031;28;20742;-80
2022/12/20 00:10:36;;;;;;;47.75;27.08;;;2.70;99.90;;;;;;6244770;28;20184;-80
2022/12/20 00:13:39;;;;;;;41.45;26.08;;;2.60;99.90;;;;;;6254158;28;20136;-81
2022/12/20 00:16:42;;;;;;;44.85;30.73;;;2.60;99.90;;;;;;6254380;28;20052;-81
2022/12/20 00:19:45;;;;;;;38.08;26.10;;;2.60;99.90;;;;;;6255040;28;20045;-81
2022/12/20 00:22:47;;;;;;;42.83;27.40;;;2.60;99.90;;;;;;6254363;28;20414;-80
2022/12/20 00:25:49;;;;;;;42.78;25.92;;;2.60;99.90;;;;;;6255196;28;20611;-80
2022/12/20 00:28:51;;;;;;;39.55;25.55;;;2.60;99.90;;;;;;6254351;28;20483;-80
2022/12/20 00:31:54;;;;;;;34.50;25.83;;;2.70;99.90;;;;;;6255599;28;20061;-81
2022/12/20 00:34:55;;;;;;;47.25;29.00;;;2.70;99.90;;;;;;6254731;28;20049;-80
2022/12/20 00:37:57;;;;;;;45.97;28.27;;;2.70;99.90;;;;;;6253915;28;20506;-80
2022/12/20 00:41:00;;;;;;;43.08;27.33;;;2.70;99.90;;;;;;6254588;28;20061;-80
2022/12/20 00:44:02;;;;;;;45.15;28.70;;;2.70;99.90;;;;;;6253641;28;20049;-80
2022/12/20 00:47:05;;;;;;;44.10;28.27;;;2.70;99.90;;;;;;6253285;28;20723;-81
2022/12/20 00:50:08;;;;;;;47.78;28.98;;;2.70;99.90;;;;;;6253962;28;20042;-80
2022/12/20 00:53:09;;;;;;;38.90;26.10;;;2.70;99.90;;;;;;6254330;28;20526;-80
2022/12/20 00:56:12;;;;;;;48.65;28.83;;;2.70;99.90;;;;;;6253490;28;20061;-81
2022/12/20 00:59:13;;;;;;;43.70;27.70;;;2.70;99.90;;;;;;6253542;28;20053;-79
2022/12/20 01:02:16;;;;;;;44.78;30.00;;;2.70;99.90;;;;;;6253887;28;20068;-80
2022/12/20 01:05:18;;;;;;;45.47;28.35;;;2.70;99.90;;;;;;6254492;28;20422;-80
2022/12/20 01:08:21;;;;;;;47.90;27.08;;;2.70;99.90;;;;;;6253243;28;20405;-80
2022/12/20 01:11:24;;;;;;;42.17;28.58;;;2.70;99.90;;;;;;6253618;28;20533;-80
2022/12/20 01:14:25;;;;;;;39.22;26.17;;;2.70;99.90;;;;;;6253185;28;20042;-80
2022/12/20 01:17:28;;;;;;;43.75;27.67;;;2.80;99.90;;;;;;6253025;28;20518;-79
2022/12/20 01:20:30;;;;;;;43.00;25.92;;;2.80;99.90;;;;;;6252656;28;20045;-80
2022/12/20 01:23:32;;;;;;;41.40;26.90;;;2.80;99.90;;;;;;6253455;28;20053;-81
2022/12/20 01:26:33;;;;;;;45.38;29.08;;;2.80;99.90;;;;;;6252399;28;20047;-80
2022/12/20 01:29:35;;;;;;;44.58;28.38;;;2.80;99.90;;;;;;6252715;28;20064;-80
2022/12/20 01:32:38;;;;;;;41.83;26.58;;;2.80;99.90;;;;;;6252424;28;20045;-80
2022/12/20 01:35:40;;;;;;;42.15;27.48;;;2.80;99.90;;;;;;6252337;28;20049;-81
2022/12/20 01:38:42;;;;;;;50.97;28.65;;;2.80;99.90;;;;;;6250992;28;20503;-80
2022/12/20 01:41:45;;;;;;;49.85;27.95;;;2.80;99.90;;;;;;6253142;28;20049;-80
2022/12/20 01:44:55;;;;;;;46.45;26.63;;;2.80;99.90;;;;;;6250738;28;20049;-80
2022/12/20 01:47:59;;;;;;;47.17;27.40;;;2.70;99.90;;;;;;6251934;28;20442;-80
2022/12/20 01:51:02;;;;;;;45.03;27.42;;;2.70;99.90;;;;;;6252167;28;20046;-80
2022/12/20 01:54:07;;;;;;;46.05;26.27;;;2.60;99.90;;;;;;6251883;28;20060;-80
2022/12/20 01:57:14;;;;;;;43.88;27.48;;;2.60;99.90;;;;;;6253401;28;20045;-80
2022/12/20 02:00:16;;;;;;;47.72;26.90;;;2.50;99.90;;;;;;6251826;28;20053;-78
2022/12/20 02:03:19;;;;;;;36.03;25.30;;;2.50;99.90;;;;;;6252619;28;20061;-79
2022/12/20 02:06:23;;;;;;;43.55;27.90;;;2.50;99.90;;;;;;6252163;28;20049;-80
2022/12/20 02:09:25;;;;;;;44.25;24.95;;;2.50;99.90;;;;;;6252197;28;20053;-80
2022/12/20 02:12:31;;;;;;;38.58;25.98;;;2.50;99.90;;;;;;6251336;28;20046;-80
2022/12/20 02:15:43;;;;;;;40.72;27.65;;;2.50;99.90;;;;;;6251587;28;20052;-80
2022/12/20 02:18:57;;;;;;;52.33;31.00;;;2.50;99.90;;;;;;6251316;28;20422;-79
2022/12/20 02:22:15;;;;;;;43.83;27.60;;;2.50;99.90;;;;;;6251264;28;20056;-79
2022/12/20 02:25:35;;;;;;;43.10;28.90;;;2.50;99.90;;;;;;6252084;28;20053;-80
2022/12/20 02:29:05;;;;;;;37.95;26.35;;;2.50;99.90;;;;;;6250147;28;20439;-80
2022/12/20 02:32:14;;;;;;;47.20;28.10;;;2.50;99.90;;;;;;6251570;28;20057;-80
2022/12/20 02:35:21;;;;;;;50.25;26.30;;;2.50;99.90;;;;;;6252134;28;20049;-80
2022/12/20 02:38:29;;;;;;;46.03;26.52;;;2.50;99.90;;;;;;6250222;28;20050;-80
2022/12/20 02:41:33;;;;;;;;;;;2.50;99.90;;;;;;6251117;28;20050;-81
2022/12/20 02:48:03;;;;;;;48.50;28.65;;;2.50;99.90;;;;;;6250583;28;20038;-80
2022/12/20 02:51:06;;;;;;;52.03;28.02;;;2.50;99.90;;;;;;6250559;28;20563;-80
2022/12/20 02:54:07;;;;;;;46.63;29.40;;;2.50;99.90;;;;;;6249840;28;20418;-79
2022/12/20 02:57:14;;;;;;;41.65;28.42;;;2.60;99.90;;;;;;6251231;28;20052;-81
2022/12/20 03:00:18;;;;;;;45.20;29.55;;;2.60;99.90;;;;;;6252080;28;20052;-80
2022/12/20 03:03:24;;;;;;;52.78;26.95;;;2.60;99.90;;;;;;6250447;28;20125;-81
2022/12/20 03:06:27;;;;;;;43.05;28.05;;;2.70;99.90;;;;;;6251241;28;20059;-80
2022/12/20 03:09:31;;;;;;;46.45;28.25;;;2.70;99.90;;;;;;6250422;28;20046;-81
2022/12/20 03:12:32;;;;;;;49.88;29.67;;;2.70;99.90;;;;;;6251989;28;20053;-80
2022/12/20 03:15:34;;;;;;;47.75;28.45;;;2.60;99.90;;;;;;6249891;28;20049;-80
2022/12/20 03:18:37;;;;;;;44.78;25.90;;;2.60;99.90;;;;;;6248340;28;20045;-80
2022/12/20 03:21:39;;;;;;;38.08;25.50;;;2.60;99.90;;;;;;6249460;28;20054;-80
2022/12/20 03:24:41;;;;;;;39.10;28.63;;;2.50;99.90;;;;;;6249163;28;20454;-79
2022/12/20 03:27:42;;;;;;;39.90;26.27;;;2.50;99.90;;;;;;6248626;28;20045;-79
2022/12/20 03:30:44;;;;;;;47.90;27.85;;;2.50;99.90;;;;;;6248759;28;20046;-80
2022/12/20 03:33:47;;;;;;;47.53;26.40;;;2.50;99.90;;;;;;6249813;28;20065;-79
2022/12/20 03:36:49;;;;;;;51.33;26.83;;;2.50;99.90;;;;;;6247643;28;20056;-79
2022/12/20 03:39:51;;;;;;;48.20;28.90;;;2.50;99.90;;;;;;6248430;28;20046;-80
2022/12/20 03:42:52;;;;;;;44.20;27.77;;;2.40;99.90;;;;;;6247730;28;20064;-80
2022/12/20 03:45:54;;;;;;;46.80;26.42;;;2.40;99.90;;;;;;6247968;28;20420;-79
2022/12/20 03:48:57;;;;;;;44.83;27.55;;;2.40;99.90;;;;;;6252848;28;20061;-80
2022/12/20 03:51:59;;;;;;;36.70;25.63;;;2.40;99.90;;;;;;6255195;28;20049;-80
2022/12/20 03:55:01;;;;;;;40.90;24.70;;;2.40;99.90;;;;;;6255640;28;20057;-81
2022/12/20 03:58:03;;;;;;;40.08;27.98;;;2.40;99.90;;;;;;6254457;28;20049;-80
2022/12/20 04:01:17;;;;;;;42.85;26.95;;;2.40;99.90;;;;;;6255038;28;20045;-80
2022/12/20 04:04:20;;;;;;;47.03;25.35;;;2.50;99.90;;;;;;6254374;28;20050;-79
2022/12/20 04:07:22;;;;;;;52.80;28.40;;;2.50;99.90;;;;;;6254351;28;20042;-81
2022/12/20 04:10:23;;;;;;;40.25;26.23;;;2.50;99.90;;;;;;6254317;28;20046;-81
2022/12/20 04:13:25;;;;;;;42.60;25.55;;;2.40;99.90;;;;;;6254742;28;20053;-80
2022/12/20 04:16:29;;;;;;;42.13;24.42;;;2.50;99.90;;;;;;6253317;28;20104;-79
2022/12/20 04:19:32;;;;;;;38.75;25.58;;;2.50;99.90;;;;;;6250657;28;20045;-79
2022/12/20 04:22:33;;;;;;;41.40;23.15;;;2.50;99.90;;;;;;6252556;28;20042;-79
2022/12/20 04:25:35;;;;;;;40.45;24.92;;;2.50;99.90;;;;;;6252856;28;20046;-80
2022/12/20 04:28:37;;;;;;;41.30;23.75;;;2.50;99.90;;;;;;6252531;28;20049;-80
2022/12/20 04:31:38;;;;;;;37.60;23.40;;;2.60;99.90;;;;;;6251944;28;20049;-80
2022/12/20 04:34:41;;;;;;;35.65;23.63;;;2.60;99.90;;;;;;6252549;28;20045;-81
2022/12/20 04:37:43;;;;;;;45.55;25.95;;;2.60;99.90;;;;;;6252143;28;20052;-80
2022/12/20 04:40:45;;;;;;;38.00;25.08;;;2.60;99.90;;;;;;6251896;28;20041;-80
2022/12/20 04:43:46;;;;;;;37.78;25.15;;;2.60;99.90;;;;;;6251973;28;20053;-80
2022/12/20 04:46:48;;;;;;;39.30;24.02;;;2.60;99.90;;;;;;6252195;28;20423;-80
2022/12/20 04:49:51;;;;;;;38.78;25.08;;;2.60;99.90;;;;;;6250968;28;20476;-79
2022/12/20 04:56:12;;;;;;;45.92;25.40;;;2.60;99.90;;;;;;6251199;28;20041;-79
2022/12/20 04:59:14;;;;;;;37.08;24.77;;;2.60;99.90;;;;;;6248113;28;20049;-80
2022/12/20 05:02:16;;;;;;;44.85;27.67;;;2.70;99.90;;;;;;6250249;28;20042;-79
2022/12/20 05:05:19;;;;;;;43.08;26.27;;;2.70;99.90;;;;;;6249764;28;20064;-79
2022/12/20 05:08:20;;;;;;;47.00;29.38;;;2.70;99.90;;;;;;6248160;28;20044;-80
2022/12/20 05:11:22;;;;;;;43.88;28.83;;;2.70;99.90;;;;;;6249213;28;20515;-79
2022/12/20 05:14:24;;;;;;;41.58;27.00;;;2.70;99.90;;;;;;6250675;28;20514;-79
2022/12/20 05:17:25;;;;;;;48.30;27.70;;;2.70;99.90;;;;;;6252422;28;20053;-80
2022/12/20 05:20:31;;;;;;;47.65;28.40;;;2.80;99.90;;;;;;6260028;28;20137;-79
2022/12/20 05:26:51;;;;;;;39.70;25.13;;;2.80;99.90;;;;;;6251206;28;20037;-80
2022/12/20 05:29:53;;;;;;;40.03;23.80;;;2.70;99.90;;;;;;6252641;28;20045;-80
2022/12/20 05:32:55;;;;;;;40.13;24.33;;;2.70;99.90;;;;;;6253271;28;20049;-81
2022/12/20 05:35:58;;;;;;;35.28;21.88;;;2.80;99.90;;;;;;6252745;28;20415;-80
2022/12/20 05:39:00;;;;;;;33.35;23.98;;;2.80;99.90;;;;;;6251972;28;20415;-79
2022/12/20 05:42:01;;;;;;;39.17;24.13;;;2.90;99.90;;;;;;6250374;28;20046;-80
2022/12/20 05:45:03;;;;;;;36.00;25.83;;;2.90;99.90;;;;;;6251025;28;20053;-81
2022/12/20 05:48:05;;;;;;;41.72;25.60;;;2.90;99.90;;;;;;6249513;28;20061;-80
2022/12/20 05:51:08;;;;;;;41.67;26.20;;;2.90;99.90;;;;;;6249117;28;20048;-79
2022/12/20 05:54:10;;;;;;;39.70;24.88;;;2.90;99.90;;;;;;6250655;28;20049;-79
2022/12/20 05:57:13;;;;;;;39.90;25.38;;;3.00;99.90;;;;;;6251109;28;20049;-80
2022/12/20 06:00:15;;;;;;;40.92;24.42;;;3.00;99.90;;;;;;6250176;28;20124;-79
2022/12/20 06:03:17;;;;;;;38.22;24.10;;;3.00;99.90;;;;;;6248917;28;20045;-80
2022/12/20 06:06:20;;;;;;;35.83;25.45;;;3.00;99.90;;;;;;6250051;28;20488;-80
2022/12/20 06:09:22;;;;;;;36.40;22.52;;;3.00;99.90;;;;;;6250021;28;20080;-80
2022/12/20 06:12:24;;;;;;;41.75;25.85;;;3.00;99.90;;;;;;6248656;28;20050;-80
2022/12/20 06:15:26;;;;;;;49.38;28.17;;;3.00;99.90;;;;;;6250098;28;20053;-80
2022/12/20 06:18:27;;;;;;;41.80;26.40;;;3.00;99.90;;;;;;6249940;28;20053;-80
2022/12/20 06:21:30;;;;;;;42.75;23.20;;;3.00;99.90;;;;;;6249942;28;20050;-80
2022/12/20 06:24:32;;;;;;;35.47;21.92;;;3.00;99.90;;;;;;6250279;28;20128;-80
2022/12/20 06:27:34;;;;;;;42.60;25.75;;;3.10;99.90;;;;;;6249114;28;20061;-80
2022/12/20 06:30:35;;;;;;;33.78;25.23;;;3.10;99.90;;;;;;6249748;28;20049;-82
2022/12/20 06:33:38;;;;;;;38.83;24.80;;;3.00;99.90;;;;;;6252965;28;20046;-81
2022/12/20 06:36:41;;;;;;;39.08;24.40;;;3.00;99.90;;;;;;6251525;28;20056;-81
2022/12/20 06:39:42;;;;;;;39.80;24.45;;;3.00;99.90;;;;;;6251545;28;20050;-81
2022/12/20 06:42:44;;;;;;;34.78;23.15;;;3.00;99.90;;;;;;6253836;28;20060;-82
2022/12/20 06:45:46;;;;;;;37.80;23.92;;;3.00;99.90;;;;;;6255443;28;20053;-82
2022/12/20 06:48:47;;;;;;;35.88;23.55;;;3.10;99.90;;;;;;6254236;28;20042;-82
2022/12/20 06:51:50;;;;;;;37.30;24.60;;;3.00;99.90;;;;;;6255108;28;20045;-81
2022/12/20 06:54:52;;;;;;;39.53;24.55;;;3.00;99.90;;;;;;6257416;28;20057;-80
2022/12/20 06:57:55;;;;;;;30.38;20.95;;;3.00;99.90;;;;;;6252881;28;20061;-81
2022/12/20 07:00:56;;;;;;;39.00;25.95;;;3.00;99.90;;;;;;6252691;28;20388;-80
2022/12/20 07:03:58;;;;;;;40.90;22.60;;;3.10;99.90;;;;;;6252736;28;20061;-80
2022/12/20 07:07:01;;;;;;;42.15;23.88;;;3.10;99.90;;;;;;6252334;28;20042;-81
2022/12/20 07:10:03;;;;;;;42.30;24.92;;;3.10;99.90;;;;;;6253440;28;20049;-81
2022/12/20 07:13:05;;;;;;;36.08;25.17;;;3.20;99.90;;;;;;6253969;28;20049;-81
2022/12/20 07:16:07;;;;;;;40.70;23.83;;;3.20;99.90;;;;;;6253128;28;20042;-81
2022/12/20 07:19:11;;;;;;;33.20;23.80;;;3.30;99.90;;;;;;6253258;28;20090;-80
2022/12/20 07:22:14;;;;;;;31.42;22.70;;;3.40;99.90;;;;;;6255564;28;20049;-81
2022/12/20 07:25:16;;;;;;;37.92;22.98;;;3.40;99.90;;;;;;6258612;28;20052;-81
2022/12/20 07:28:17;;;;;;;31.63;23.77;;;3.50;99.90;;;;;;6259291;28;20037;-82
2022/12/20 07:31:19;;;;;;;36.53;22.45;;;3.50;99.90;;;;;;6259305;28;20056;-81
2022/12/20 07:34:21;;;;;;;39.95;22.20;;;3.60;99.90;;;;;;6258992;28;20041;-81
2022/12/20 07:37:24;;;;;;;33.10;20.80;;;3.60;99.90;;;;;;6258762;28;20057;-81
2022/12/20 07:40:26;;;;;;;32.35;22.00;;;3.70;99.90;;;;;;6258636;28;20052;-81
2022/12/20 07:43:27;;;;;;;30.50;21.67;;;3.80;99.90;;;;;;6259409;28;20097;-80
2022/12/20 07:46:29;;;;;;;38.08;21.75;;;3.80;99.90;;;;;;6259679;28;20053;-81
2022/12/20 07:49:31;;;;;;;29.35;20.17;;;4.00;99.90;;;;;;6259814;28;20495;-81
2022/12/20 07:52:35;;;;;;;30.25;19.52;;;4.00;99.90;;;;;;6262382;28;20508;-81
2022/12/20 07:55:38;;;;;;;31.70;21.13;;;4.00;99.90;;;;;;6260150;28;20041;-81
2022/12/20 07:58:41;;;;;;;26.85;18.58;;;4.00;99.90;;;;;;6259675;28;20425;-81
2022/12/20 08:01:45;;;;;;;26.33;19.92;;;4.00;99.90;;;;;;6260402;28;20534;-81
2022/12/20 08:04:47;;;;;;;29.92;18.70;;;4.00;99.90;;;;;;6262049;28;20661;-82
2022/12/20 08:07:51;;;;;;;34.47;22.25;;;4.00;99.90;;;;;;6260254;28;20060;-81
2022/12/20 08:10:53;;;;;;;28.83;19.40;;;4.10;99.90;;;;;;6261451;28;20042;-80
2022/12/20 08:13:54;;;;;;;33.38;21.90;;;4.10;99.90;;;;;;6260399;28;20060;-81
2022/12/20 08:16:56;;;;;;;30.83;20.50;;;4.10;99.90;;;;;;6259440;28;20049;-81
2022/12/20 08:19:59;;;;;;;32.42;22.58;;;4.20;99.90;;;;;;6259267;28;20052;-81
2022/12/20 08:23:04;;;;;;;25.15;19.02;;;4.20;99.90;;;;;;6259435;28;20052;-82
2022/12/20 08:26:06;;;;;;;27.42;20.35;;;4.20;99.90;;;;;;6253295;28;20051;-81
2022/12/20 08:29:09;;;;;;;32.85;19.23;;;4.30;99.90;;;;;;6255247;28;20147;-81
2022/12/20 08:32:12;;;;;;;28.17;18.70;;;4.30;99.90;;;;;;6253667;28;20056;-81
2022/12/20 08:35:14;;;;;;;33.55;23.08;;;4.30;99.90;;;;;;6252978;28;20124;-80
2022/12/20 08:38:17;;;;;;;30.08;21.15;;;4.30;99.90;;;;;;6253619;28;20045;-82
2022/12/20 08:41:19;;;;;;;29.40;21.70;;;4.40;99.90;;;;;;6254790;28;20053;-81
2022/12/20 08:44:21;;;;;;;31.90;21.88;;;4.40;99.90;;;;;;6253782;28;20126;-81
2022/12/20 08:47:22;;;;;;;27.58;19.42;;;4.50;99.90;;;;;;6253736;28;20053;-81
2022/12/20 08:50:25;;;;;;;33.03;19.02;;;4.50;99.90;;;;;;6254550;28;20037;-81
2022/12/20 08:53:29;;;;;;;24.92;17.33;;;4.60;99.90;;;;;;6253430;28;20138;-82
2022/12/20 08:56:31;;;;;;;31.88;20.17;;;4.60;99.90;;;;;;6249391;28;20041;-81
2022/12/20 08:59:32;;;;;;;27.98;20.30;;;4.70;99.90;;;;;;6249556;28;20100;-81
2022/12/20 09:02:36;;;;;;;30.10;21.50;;;4.70;99.90;;;;;;6248939;28;20208;-81
2022/12/20 09:05:44;;;;;;;28.25;20.50;;;4.80;99.90;;;;;;6249987;28;20538;-81
2022/12/20 09:08:47;;;;;;;31.90;20.10;;;4.90;99.90;;;;;;6249301;28;20075;-81
2022/12/20 09:11:49;;;;;;;28.92;20.17;;;4.90;99.90;;;;;;6249405;28;20053;-81
2022/12/20 09:14:51;;;;;;;35.35;20.60;;;5.10;99.90;;;;;;6251122;28;20419;-80
2022/12/20 09:17:52;;;;;;;31.02;20.80;;;5.20;99.90;;;;;;6251766;28;20060;-80
2022/12/20 09:20:54;;;;;;;29.90;20.33;;;5.20;99.90;;;;;;6252166;28;20077;-80
2022/12/20 09:23:57;;;;;;;27.55;21.27;;;5.30;99.90;;;;;;6250875;28;20168;-80
2022/12/20 09:26:59;;;;;;;30.23;20.48;;;5.40;99.90;;;;;;6251010;28;20056;-81
2022/12/20 09:30:01;;;;;;;27.13;20.48;;;5.40;99.90;;;;;;6249053;28;20052;-82
2022/12/20 09:33:02;;;;;;;28.08;18.23;;;5.50;99.90;;;;;;6238046;28;20057;-80
2022/12/20 09:36:05;;;;;;;22.75;18.05;;;5.60;99.90;;;;;;6253801;28;20061;-81
2022/12/20 09:39:08;;;;;;;26.67;19.85;;;5.60;99.90;;;;;;6251067;28;20049;-81
2022/12/20 09:42:10;;;;;;;26.23;17.48;;;5.60;99.90;;;;;;6256424;28;20061;-82
2022/12/20 09:45:21;;;;;;;28.25;17.90;;;5.60;99.90;;;;;;6257451;28;20061;-80
2022/12/20 09:48:26;;;;;;;26.45;18.10;;;5.70;99.90;;;;;;6254905;28;20411;-80
2022/12/20 09:51:42;;;;;;;23.90;18.58;;;5.70;99.90;;;;;;6251476;28;20060;-79
2022/12/20 09:54:55;;;;;;;22.50;17.33;;;5.70;99.90;;;;;;6254241;28;20423;-79
2022/12/20 09:58:15;;;;;;;18.38;15.57;;;5.70;99.90;;;;;;6250227;28;20056;-80
2022/12/20 10:01:20;;;;;;;22.92;18.58;;;5.70;99.90;;;;;;6251845;28;20057;-79
2022/12/20 10:04:24;;;;;;;23.40;17.38;;;5.80;99.90;;;;;;6253200;28;20049;-81
2022/12/20 10:07:38;;;;;;;26.88;18.23;;;5.90;99.90;;;;;;6253432;28;20048;-81
2022/12/20 10:10:55;;;;;;;24.60;17.25;;;5.90;99.90;;;;;;6250500;28;20101;-79
2022/12/20 10:14:06;;;;;;;27.88;20.48;;;6.10;99.90;;;;;;6250904;28;20045;-80
2022/12/20 10:17:12;;;;;;;25.20;18.23;;;6.30;99.90;;;;;;6250991;28;20061;-82
2022/12/20 10:20:25;;;;;;;26.30;19.33;;;6.40;99.90;;;;;;6248378;28;20043;-81
2022/12/20 10:23:33;;;;;;;26.33;17.60;;;6.50;99.90;;;;;;6251034;28;20042;-79
2022/12/20 10:26:36;;;;;;;20.88;15.52;;;6.60;99.90;;;;;;6253434;28;20046;-80
2022/12/20 10:29:38;;;;;;;23.48;16.60;;;6.70;99.90;;;;;;6251808;28;20046;-79
2022/12/20 10:32:42;;;;;;;26.30;15.77;;;6.80;99.90;;;;;;6250351;28;20423;-80
2022/12/20 10:35:44;;;;;;;19.00;16.70;;;7.00;99.90;;;;;;6251231;28;20052;-81
2022/12/20 10:38:50;;;;;;;24.42;15.18;;;7.10;99.90;;;;;;6256010;28;20045;-82
2022/12/20 10:41:54;;;;;;;19.70;15.63;;;7.30;99.90;;;;;;6253112;28;20056;-80
2022/12/20 10:44:56;;;;;;;18.40;15.73;;;7.40;99.90;;;;;;6249756;28;20076;-79
2022/12/20 10:48:00;;;;;;;24.45;15.00;;;7.50;99.90;;;;;;6249655;28;20046;-80
2022/12/20 10:51:12;;;;;;;16.10;13.52;;;7.60;99.90;;;;;;6256353;28;20044;-80
2022/12/20 10:54:23;;;;;;;18.80;14.65;;;7.60;99.90;;;;;;6253249;28;20052;-80
2022/12/20 10:57:28;;;;;;;17.83;14.10;;;7.70;99.90;;;;;;6260234;28;20415;-80
2022/12/20 11:00:31;;;;;;;26.50;15.52;;;7.70;99.90;;;;;;6259415;28;20053;-81
2022/12/20 11:03:32;;;;;;;20.52;13.77;;;7.60;99.90;;;;;;6258343;28;20041;-80
2022/12/20 11:06:43;;;;;;;20.58;14.20;;;7.60;99.90;;;;;;6258077;28;20046;-80
2022/12/20 11:09:54;;;;;;;15.85;13.15;;;7.60;99.90;;;;;;6257951;28;20049;-79
2022/12/20 11:12:58;;;;;;;19.63;14.43;;;7.60;99.90;;;;;;6257734;28;20523;-80
2022/12/20 11:16:00;;;;;;;22.05;15.68;;;7.60;99.90;;;;;;6257004;28;20061;-80
2022/12/20 11:19:28;;;;;;;16.67;13.40;;;7.60;99.90;;;;;;6255532;28;20045;-80
2022/12/20 11:22:48;;;;;;;17.50;13.77;;;7.70;99.90;;;;;;6257678;28;20046;-80
2022/12/20 11:26:07;;;;;;;18.65;15.73;;;7.70;99.90;;;;;;6256469;28;20299;-80
2022/12/20 11:29:28;;;;;;;18.52;15.88;;;7.70;99.90;;;;;;6256589;28;20116;-80
2022/12/20 11:32:47;;;;;;;24.00;18.23;;;7.80;99.90;;;;;;6255465;28;20056;-79
2022/12/20 11:35:56;;;;;;;22.10;16.35;;;8.00;99.90;;;;;;6254702;28;20049;-80
2022/12/20 11:39:05;;;;;;;19.08;15.38;;;8.10;99.90;;;;;;6255708;28;20052;-79
2022/12/20 11:42:16;;;;;;;18.50;14.05;;;8.30;99.90;;;;;;6255214;28;20049;-80
2022/12/20 11:45:27;;;;;;;19.92;14.27;;;8.30;99.90;;;;;;6257712;28;20049;-79
2022/12/20 11:48:41;;;;;;;22.95;16.85;;;8.40;99.90;;;;;;6255716;28;20057;-80
2022/12/20 11:51:46;;;;;;;17.77;14.13;;;8.50;99.90;;;;;;6255523;28;20049;-80
2022/12/20 11:54:56;;;;;;;18.55;14.55;;;8.60;99.90;;;;;;6255725;28;20049;-79
2022/12/20 11:58:04;;;;;;;15.02;12.60;;;8.70;99.90;;;;;;6251002;28;20050;-80
2022/12/20 12:01:12;;;;;;;28.27;15.20;;;8.70;99.90;;;;;;6256208;28;20041;-79
2022/12/20 12:04:19;;;;;;;16.75;13.98;;;8.70;99.90;;;;;;6255575;28;20203;-80
2022/12/20 12:07:25;;;;;;;20.70;14.30;;;8.60;99.90;;;;;;6254214;28;20052;-79
2022/12/20 12:10:32;;;;;;;18.00;14.38;;;8.60;99.90;;;;;;6249649;28;20045;-79
2022/12/20 12:13:37;;;;;;;18.30;15.38;;;8.60;99.90;;;;;;6251660;28;20052;-80
2022/12/20 12:16:45;;;;;;;21.45;15.02;;;8.70;99.90;;;;;;6250708;28;20510;-79
2022/12/20 12:19:50;;;;;;;22.13;16.23;;;8.70;99.90;;;;;;6250495;28;20041;-79
2022/12/20 12:22:57;;;;;;;22.17;14.95;;;8.70;99.90;;;;;;6252006;28;20084;-81
2022/12/20 12:26:04;;;;;;;19.00;14.95;;;8.70;99.90;;;;;;6250358;28;20069;-80
2022/12/20 12:29:11;;;;;;;18.05;15.50;;;8.70;99.90;;;;;;6250738;28;20049;-79
2022/12/20 12:32:21;;;;;;;17.77;14.55;;;8.70;99.90;;;;;;6251193;28;20041;-81
2022/12/20 12:35:46;;;;;;;31.70;15.35;;;8.70;99.90;;;;;;6250408;28;20458;-81
2022/12/20 12:39:17;;;;;;;20.48;14.48;;;8.70;99.90;;;;;;6250293;28;20396;-81
2022/12/20 12:43:13;;;;;;;17.98;14.43;;;8.70;99.90;;;;;;6249081;28;20407;-79
2022/12/20 12:46:19;;;;;;;24.65;16.65;;;8.70;99.90;;;;;;6200383;28;20487;-81
2022/12/20 12:49:27;;;;;;;23.02;15.43;;;8.80;99.90;;;;;;6250671;28;20060;-79
2022/12/20 12:52:43;;;;;;;21.40;15.82;;;8.80;99.90;;;;;;6250431;28;20439;-79
2022/12/20 12:55:47;;;;;;;34.22;20.67;;;8.80;99.90;;;;;;6249743;28;20050;-79
2022/12/20 12:59:18;;;;;;;30.90;20.42;;;8.80;99.90;;;;;;6249511;28;20049;-80
2022/12/20 13:02:49;;;;;;;23.15;15.90;;;8.80;99.90;;;;;;6249877;28;20045;-80
2022/12/20 13:05:52;;;;;;;18.27;13.30;;;8.70;99.90;;;;;;6249741;28;20060;-79
2022/12/20 13:09:17;;;;;;;24.88;17.00;;;8.80;99.90;;;;;;6250231;28;20049;-82
2022/12/20 13:12:57;;;;;;;17.73;13.60;;;8.90;99.90;;;;;;6250085;28;20045;-80
2022/12/20 13:16:27;;;;;;;25.70;13.60;;;8.80;99.90;;;;;;6237896;28;20045;-79
2022/12/20 13:19:33;;;;;;;18.05;13.05;;;8.80;99.90;;;;;;6247830;28;20046;-79
2022/12/20 13:22:37;;;;;;;25.92;14.93;;;8.90;99.90;;;;;;6250558;28;20040;-81
2022/12/20 13:25:40;;;;;;;21.27;13.25;;;9.00;99.90;;;;;;6249494;28;20447;-79
2022/12/20 13:28:45;;;;;;;19.50;13.70;;;9.00;99.90;;;;;;6240581;28;20049;-79
2022/12/20 13:31:48;;;;;;;20.00;13.48;;;9.00;99.90;;;;;;6249310;28;20499;-79
2022/12/20 13:34:56;;;;;;;19.83;14.63;;;9.10;99.90;;;;;;6249546;28;20045;-80
2022/12/20 13:38:03;;;;;;;16.90;14.15;;;9.00;99.90;;;;;;6224815;28;20093;-80
2022/12/20 13:41:17;;;;;;;20.75;13.40;;;8.90;99.90;;;;;;6225693;28;20484;-79
2022/12/20 13:44:35;;;;;;;18.67;13.85;;;8.80;99.90;;;;;;6225078;28;20046;-80
2022/12/20 13:47:46;;;;;;;19.80;15.30;;;8.80;99.90;;;;;;6224375;28;20057;-80
2022/12/20 13:50:51;;;;;;;22.02;13.93;;;8.70;99.90;;;;;;6224511;28;20049;-80
2022/12/20 13:53:57;;;;;;;23.50;15.38;;;8.70;99.90;;;;;;6226086;28;20085;-79
2022/12/20 13:56:59;;;;;;;21.42;15.68;;;8.70;99.90;;;;;;6248345;28;20053;-80
2022/12/20 14:00:05;;;;;;;21.80;17.08;;;8.70;99.90;;;;;;6247781;28;20045;-79
2022/12/20 14:03:19;;;;;;;24.77;16.92;;;8.90;99.90;;;;;;6249255;28;20507;-79
2022/12/20 14:06:23;;;;;;;27.75;16.73;;;8.90;99.90;;;;;;6248465;28;20049;-80
2022/12/20 14:09:33;;;;;;;23.35;15.07;;;9.00;99.90;;;;;;6248457;28;20076;-80
2022/12/20 14:12:35;;;;;;;18.75;13.15;;;9.00;99.90;;;;;;6248774;28;20122;-80
2022/12/20 14:15:38;;;;;;;17.88;13.25;;;9.00;99.90;;;;;;6248272;28;20048;-79
2022/12/20 14:18:40;;;;;;;29.77;20.10;;;9.00;99.90;;;;;;6247756;28;20053;-79
2022/12/20 14:21:45;;;;;;;24.73;17.30;;;9.10;99.90;;;;;;6248877;28;20056;-79
2022/12/20 14:24:48;;;;;;;20.33;15.55;;;9.00;99.90;;;;;;6248708;28;20042;-81
2022/12/20 14:27:50;;;;;;;29.92;16.75;;;9.00;99.90;;;;;;6248240;28;20472;-80
2022/12/20 14:30:52;;;;;;;40.38;24.35;;;9.00;99.90;;;;;;6249464;28;20054;-80
2022/12/20 14:34:04;;;;;;;25.55;18.80;;;9.00;99.90;;;;;;6250097;28;20052;-80
2022/12/20 14:37:30;;;;;;;24.98;18.00;;;8.90;99.90;;;;;;6248401;28;20045;-79
2022/12/20 14:40:41;;;;;;;23.65;17.00;;;8.80;99.90;;;;;;6223742;28;20504;-80
2022/12/20 14:43:43;;;;;;;28.10;16.23;;;8.70;99.90;;;;;;6223505;28;20050;-79
2022/12/20 14:46:49;;;;;;;21.50;15.13;;;8.60;99.90;;;;;;6224243;28;20041;-78
2022/12/20 14:49:55;;;;;;;26.73;16.77;;;8.50;99.90;;;;;;6223151;28;20136;-79
2022/12/20 14:52:57;;;;;;;39.22;19.00;;;8.40;99.90;;;;;;6223947;28;20061;-79
2022/12/20 14:56:01;;;;;;;28.63;17.90;;;8.40;99.90;;;;;;6229051;28;20427;-79
2022/12/20 14:59:13;;;;;;;35.47;21.58;;;8.30;99.90;;;;;;6247177;28;20144;-80
2022/12/20 15:02:34;;;;;;;35.85;22.88;;;8.30;99.90;;;;;;6247270;28;20041;-79
2022/12/20 15:05:48;;;;;;;39.78;23.45;;;8.20;99.90;;;;;;6248188;28;20049;-80
2022/12/20 15:08:49;;;;;;;37.97;23.50;;;8.00;99.90;;;;;;6247040;28;20046;-79
2022/12/20 15:11:54;;;;;;;37.35;23.38;;;8.00;99.90;;;;;;6248191;28;20050;-80
2022/12/20 15:14:55;;;;;;;28.30;18.73;;;7.90;99.90;;;;;;6247593;28;20526;-80
2022/12/20 15:17:57;;;;;;;29.70;19.17;;;7.80;99.90;;;;;;6252508;28;20720;-81
2022/12/20 15:21:03;;;;;;;29.77;19.17;;;7.70;99.90;;;;;;6259999;28;20048;-81
2022/12/20 15:24:10;;;;;;;25.88;14.15;;;7.60;99.90;;;;;;6260008;28;20443;-79
2022/12/20 15:27:16;;;;;;;20.33;14.73;;;7.50;99.90;;;;;;6257809;28;20363;-80
2022/12/20 15:30:18;;;;;;;20.00;13.68;;;7.50;99.90;;;;;;6262287;28;20282;-81
2022/12/20 15:33:24;;;;;;;20.25;13.93;;;7.40;99.90;;;;;;6264439;28;20055;-81
2022/12/20 15:36:28;;;;;;;17.40;12.30;;;7.40;99.90;;;;;;6259109;28;20046;-81
2022/12/20 15:39:30;;;;;;;21.98;12.50;;;7.30;99.90;;;;;;6255073;28;20117;-82
2022/12/20 15:42:34;;;;;;;23.58;12.85;;;7.30;99.90;;;;;;6263160;28;20117;-81
2022/12/20 15:45:35;;;;;;;21.02;12.05;;;7.20;99.90;;;;;;6269017;28;20049;-81
2022/12/20 15:48:37;;;;;;;17.35;12.68;;;7.20;99.90;;;;;;6266874;28;20055;-81
2022/12/20 15:51:41;;;;;;;18.45;13.48;;;7.20;99.90;;;;;;6263881;28;20041;-82
2022/12/20 15:54:43;;;;;;;23.55;17.13;;;7.20;99.90;;;;;;6261830;28;20128;-81
2022/12/20 15:57:46;;;;;;;20.38;16.45;;;7.20;99.90;;;;;;6262540;28;20049;-81
2022/12/20 16:00:48;;;;;;;23.88;14.50;;;7.30;99.90;;;;;;6262908;28;20041;-82
2022/12/20 16:03:50;;;;;;;15.77;12.77;;;7.30;99.90;;;;;;6256138;28;20431;-81